Wellington, New Zealand

5:32 AM NZST on July 23, 2019 (GMT +1200)
Courtenay Place - Wellington | | Change Station

Elev 70 ft 41.29 °S, 174.78 °E | Updated 13 seconds ago

Mostly Cloudy
Mostly Cloudy
45.3 °F
Feels Like 45 °F
N
0
Wind Variable Wind from North
Gusts 0.0 mph

Today
High -- | Low -- °F
--% Chance of Precip.
Yesterday
High -- | Low -- °F
Precip. -- in
Pressure 30.04 in
Visibility 6.2 miles
Clouds Mostly Cloudy 1300 ft
Windchill 45 °F
Dew Point 43 °F
Humidity 91%
Rainfall 0.00 in
Snow Depth Not available.
7:37 AM 5:17 PM
Waning Gibbous, 72% visible
METAR NZWN 221700Z AUTO 03004KT 9999 BKN013/// 05/05 Q1017 NOSIG
Pressure 30.04 in
Visibility 6.2 miles
Clouds Mostly Cloudy 1300 ft
Windchill 45 °F
Dew Point 43 °F
Humidity 91%
Rainfall 0.00 in
Snow Depth Not available.
7:37 AM 5:17 PM
Waning Gibbous, 72% visible
METAR NZWN 221700Z AUTO 03004KT 9999 BKN013/// 05/05 Q1017 NOSIG

Get Severe Weather Alerts

Thanks for signing up!

Be on the lookout for a verification email in your inbox.

You'll start receiving the daily forecast at 6 AM.

×

10-Day Weather Forecast

×

Almanac

Astronomy

Jul. 23, 2019 Rise Set
Actual Time
Civil Twilight
Nautical Twilight
Astronomical Twilight
Moon
Length of Visible Light
Length of Day
Tomorrow will be .
, % of the Moon is Illuminated

Today's Extremes

Country Highs Country Lows

Community

WunderPhotos

Category 6

Welcome to Category 6. This is the collective home for Weather Underground's featured writeups by Dr. Jeff Masters (right), Bob Henson (left), Chris Burt, and other regular contributors.

Nearby

Air Quality

  Air Quality AQ Index Pollutant
Not available.

Snow Depth

Station Depth Elevation

Earthquake Activity

City Distance Mag. Time & Date
Minimum magnitude displayed is 2.5.

Coastal Water Temperatures

Place Temperature

Stations

Nearby Weather Stations

Station Location Temp. Windchill Dew Point Humidity Wind Precip. Elev Updated Type